sensor_id;sensor_type;location;lat;lon;timestamp;pressure;altitude;pressure_sealevel;temperature;humidity
76297;BME280;65104;52.994;6.552;2023-08-21T00:01:51;102329.22;;;15.21;100.00
76297;BME280;65104;52.994;6.552;2023-08-21T00:04:17;102331.66;;;15.15;100.00
76297;BME280;65104;52.994;6.552;2023-08-21T00:06:42;102325.63;;;15.15;100.00
76297;BME280;65104;52.994;6.552;2023-08-21T00:09:08;102323.00;;;15.13;100.00
76297;BME280;65104;52.994;6.552;2023-08-21T00:11:34;102324.75;;;15.14;100.00
76297;BME280;65104;52.994;6.552;2023-08-21T00:13:59;102327.50;;;15.22;100.00
76297;BME280;65104;52.994;6.552;2023-08-21T00:16:25;102329.03;;;15.14;100.00
76297;BME280;65104;52.994;6.552;2023-08-21T00:18:52;102316.00;;;15.09;100.00
76297;BME280;65104;52.994;6.552;2023-08-21T00:21:19;102322.84;;;15.07;100.00
76297;BME280;65104;52.994;6.552;2023-08-21T00:23:45;102321.09;;;15.06;100.00
76297;BME280;65104;52.994;6.552;2023-08-21T00:26:11;102327.94;;;15.04;100.00
76297;BME280;65104;52.994;6.552;2023-08-21T00:28:37;102327.06;;;15.02;100.00
76297;BME280;65104;52.994;6.552;2023-08-21T00:31:02;102330.34;;;14.96;100.00
76297;BME280;65104;52.994;6.552;2023-08-21T00:33:30;102326.66;;;14.87;100.00
76297;BME280;65104;52.994;6.552;2023-08-21T00:35:56;102332.66;;;14.86;100.00
76297;BME280;65104;52.994;6.552;2023-08-21T00:38:21;102328.41;;;14.88;100.00
76297;BME280;65104;52.994;6.552;2023-08-21T00:40:47;102331.97;;;14.91;100.00
76297;BME280;65104;52.994;6.552;2023-08-21T00:43:13;102330.25;;;14.92;100.00
76297;BME280;65104;52.994;6.552;2023-08-21T00:45:41;102320.75;;;14.91;100.00
76297;BME280;65104;52.994;6.552;2023-08-21T00:48:08;102324.19;;;14.91;100.00
76297;BME280;65104;52.994;6.552;2023-08-21T00:50:34;102325.81;;;14.88;100.00
76297;BME280;65104;52.994;6.552;2023-08-21T00:53:00;102327.47;;;14.84;100.00
76297;BME280;65104;52.994;6.552;2023-08-21T00:55:26;102328.34;;;14.85;100.00
76297;BME280;65104;52.994;6.552;2023-08-21T00:57:51;102329.09;;;14.81;100.00
76297;BME280;65104;52.994;6.552;2023-08-21T01:00:17;102321.16;;;14.73;100.00
76297;BME280;65104;52.994;6.552;2023-08-21T01:02:42;102320.28;;;14.73;100.00
76297;BME280;65104;52.994;6.552;2023-08-21T01:05:08;102320.28;;;14.73;100.00
76297;BME280;65104;52.994;6.552;2023-08-21T01:08:02;102322.03;;;14.74;100.00
76297;BME280;65104;52.994;6.552;2023-08-21T01:10:53;102312.47;;;14.71;100.00
76297;BME280;65104;52.994;6.552;2023-08-21T01:15:58;102321.84;;;14.66;100.00
76297;BME280;65104;52.994;6.552;2023-08-21T01:18:26;102324.34;;;14.63;100.00
76297;BME280;65104;52.994;6.552;2023-08-21T01:20:52;102331.13;;;14.59;100.00
76297;BME280;65104;52.994;6.552;2023-08-21T01:23:31;102329.47;;;14.61;100.00
76297;BME280;65104;52.994;6.552;2023-08-21T01:25:57;102333.81;;;14.62;100.00
76297;BME280;65104;52.994;6.552;2023-08-21T01:28:23;102335.56;;;14.63;100.00
76297;BME280;65104;52.994;6.552;2023-08-21T01:30:50;102335.56;;;14.63;100.00
76297;BME280;65104;52.994;6.552;2023-08-21T01:33:17;102340.41;;;14.51;100.00
76297;BME280;65104;52.994;6.552;2023-08-21T01:35:44;102339.53;;;14.51;100.00
76297;BME280;65104;52.994;6.552;2023-08-21T01:38:09;102337.63;;;14.44;100.00
76297;BME280;65104;52.994;6.552;2023-08-21T01:40:35;102340.34;;;14.48;100.00
76297;BME280;65104;52.994;6.552;2023-08-21T01:43:00;102346.44;;;14.52;100.00
76297;BME280;65104;52.994;6.552;2023-08-21T01:45:26;102348.94;;;14.47;100.00
76297;BME280;65104;52.994;6.552;2023-08-21T01:47:51;102349.75;;;14.46;100.00
76297;BME280;65104;52.994;6.552;2023-08-21T01:50:17;102355.75;;;14.45;100.00
76297;BME280;65104;52.994;6.552;2023-08-21T01:52:42;102347.88;;;14.41;100.00
76297;BME280;65104;52.994;6.552;2023-08-21T01:55:08;102345.25;;;14.39;100.00
76297;BME280;65104;52.994;6.552;2023-08-21T01:57:34;102346.78;;;14.34;100.00
76297;BME280;65104;52.994;6.552;2023-08-21T01:59:59;102344.22;;;14.34;100.00
76297;BME280;65104;52.994;6.552;2023-08-21T02:02:24;102338.13;;;14.32;100.00
76297;BME280;65104;52.994;6.552;2023-08-21T02:04:50;102337.91;;;14.24;100.00
76297;BME280;65104;52.994;6.552;2023-08-21T02:07:15;102344.72;;;14.21;100.00
76297;BME280;65104;52.994;6.552;2023-08-21T02:09:40;102335.22;;;14.20;100.00
76297;BME280;65104;52.994;6.552;2023-08-21T02:12:06;102333.41;;;14.17;100.00
76297;BME280;65104;52.994;6.552;2023-08-21T02:14:31;102347.09;;;14.13;100.00
76297;BME280;65104;52.994;6.552;2023-08-21T02:16:57;102348.59;;;14.07;100.00
76297;BME280;65104;52.994;6.552;2023-08-21T02:19:22;102349.38;;;14.03;100.00
76297;BME280;65104;52.994;6.552;2023-08-21T02:21:47;102357.13;;;14.03;100.00
76297;BME280;65104;52.994;6.552;2023-08-21T02:24:13;102346.84;;;14.06;100.00
76297;BME280;65104;52.994;6.552;2023-08-21T02:26:38;102352.03;;;14.06;100.00
76297;BME280;65104;52.994;6.552;2023-08-21T02:29:04;102344.97;;;14.00;100.00
76297;BME280;65104;52.994;6.552;2023-08-21T02:31:29;102345.75;;;13.98;100.00
76297;BME280;65104;52.994;6.552;2023-08-21T02:33:54;102355.22;;;13.97;100.00
76297;BME280;65104;52.994;6.552;2023-08-21T02:36:20;102350.88;;;13.96;100.00
76297;BME280;65104;52.994;6.552;2023-08-21T02:38:45;102346.53;;;13.94;100.00
76297;BME280;65104;52.994;6.552;2023-08-21T02:41:10;102357.69;;;13.93;100.00
76297;BME280;65104;52.994;6.552;2023-08-21T02:43:36;102352.34;;;13.86;100.00
76297;BME280;65104;52.994;6.552;2023-08-21T02:46:01;102352.25;;;13.83;100.00
76297;BME280;65104;52.994;6.552;2023-08-21T02:48:27;102365.16;;;13.83;100.00
76297;BME280;65104;52.994;6.552;2023-08-21T02:50:52;102359.13;;;13.83;100.00
76297;BME280;65104;52.994;6.552;2023-08-21T02:53:17;102359.84;;;13.79;100.00
76297;BME280;65104;52.994;6.552;2023-08-21T02:55:43;102360.66;;;13.76;100.00
76297;BME280;65104;52.994;6.552;2023-08-21T02:58:08;102356.31;;;13.75;100.00
76297;BME280;65104;52.994;6.552;2023-08-21T03:00:34;102351.09;;;13.74;100.00
76297;BME280;65104;52.994;6.552;2023-08-21T03:02:59;102355.28;;;13.70;100.00
76297;BME280;65104;52.994;6.552;2023-08-21T03:05:25;102348.38;;;13.69;100.00
76297;BME280;65104;52.994;6.552;2023-08-21T03:07:50;102351.81;;;13.68;100.00
76297;BME280;65104;52.994;6.552;2023-08-21T03:10:16;102355.28;;;13.70;100.00
76297;BME280;65104;52.994;6.552;2023-08-21T03:12:41;102341.53;;;13.71;100.00
76297;BME280;65104;52.994;6.552;2023-08-21T03:15:07;102342.09;;;13.61;100.00
76297;BME280;65104;52.994;6.552;2023-08-21T03:17:32;102348.72;;;13.53;100.00
76297;BME280;65104;52.994;6.552;2023-08-21T03:19:58;102343.63;;;13.55;100.00
76297;BME280;65104;52.994;6.552;2023-08-21T03:22:23;102337.69;;;13.57;100.00
76297;BME280;65104;52.994;6.552;2023-08-21T03:24:49;102336.03;;;13.59;100.00
76297;BME280;65104;52.994;6.552;2023-08-21T03:27:18;102336.03;;;13.59;100.00
76297;BME280;65104;52.994;6.552;2023-08-21T03:29:43;102331.69;;;13.58;100.00
76297;BME280;65104;52.994;6.552;2023-08-21T03:32:14;102326.44;;;13.55;100.00
76297;BME280;65104;52.994;6.552;2023-08-21T03:34:40;102327.16;;;13.51;100.00
76297;BME280;65104;52.994;6.552;2023-08-21T03:37:06;102336.63;;;13.50;100.00
76297;BME280;65104;52.994;6.552;2023-08-21T03:39:31;102327.16;;;13.51;100.00
76297;BME280;65104;52.994;6.552;2023-08-21T03:41:56;102326.22;;;13.47;100.00
76297;BME280;65104;52.994;6.552;2023-08-21T03:44:22;102331.28;;;13.44;100.00
76297;BME280;65104;52.994;6.552;2023-08-21T03:46:47;102326.03;;;13.41;100.00
76297;BME280;65104;52.994;6.552;2023-08-21T03:49:12;102323.41;;;13.40;100.00
76297;BME280;65104;52.994;6.552;2023-08-21T03:51:38;102321.53;;;13.36;100.00
76297;BME280;65104;52.994;6.552;2023-08-21T03:54:03;102322.47;;;13.38;100.00
76297;BME280;65104;52.994;6.552;2023-08-21T03:56:29;102324.13;;;13.36;100.00
76297;BME280;65104;52.994;6.552;2023-08-21T03:58:54;102314.63;;;13.35;100.00
76297;BME280;65104;52.994;6.552;2023-08-21T04:01:19;102314.63;;;13.35;100.00
76297;BME280;65104;52.994;6.552;2023-08-21T04:03:45;102323.25;;;13.35;100.00
76297;BME280;65104;52.994;6.552;2023-08-21T04:06:10;102324.94;;;13.35;100.00
76297;BME280;65104;52.994;6.552;2023-08-21T04:08:35;102329.22;;;13.33;100.00
76297;BME280;65104;52.994;6.552;2023-08-21T04:11:01;102322.28;;;13.32;100.00
76297;BME280;65104;52.994;6.552;2023-08-21T04:13:26;102325.75;;;13.32;100.00
76297;BME280;65104;52.994;6.552;2023-08-21T04:15:53;102324.88;;;13.32;100.00
76297;BME280;65104;52.994;6.552;2023-08-21T04:18:19;102325.81;;;13.35;100.00
76297;BME280;65104;52.994;6.552;2023-08-21T04:20:44;102330.97;;;13.35;100.00
76297;BME280;65104;52.994;6.552;2023-08-21T04:23:12;102330.91;;;13.32;100.00
76297;BME280;65104;52.994;6.552;2023-08-21T04:25:37;102339.31;;;13.27;100.00
76297;BME280;65104;52.994;6.552;2023-08-21T04:28:03;102343.66;;;13.28;100.00
76297;BME280;65104;52.994;6.552;2023-08-21T04:30:28;102338.59;;;13.31;100.00
76297;BME280;65104;52.994;6.552;2023-08-21T04:32:54;102340.34;;;13.32;100.00
76297;BME280;65104;52.994;6.552;2023-08-21T04:35:19;102341.31;;;13.35;100.00
76297;BME280;65104;52.994;6.552;2023-08-21T04:37:47;102338.66;;;13.34;100.00
76297;BME280;65104;52.994;6.552;2023-08-21T04:40:13;102343.81;;;13.34;100.00
76297;BME280;65104;52.994;6.552;2023-08-21T04:42:38;102340.41;;;13.35;100.00
76297;BME280;65104;52.994;6.552;2023-08-21T04:45:04;102338.59;;;13.31;100.00
76297;BME280;65104;52.994;6.552;2023-08-21T04:47:31;102332.41;;;13.26;100.00
76297;BME280;65104;52.994;6.552;2023-08-21T04:49:57;102329.03;;;13.28;100.00
76297;BME280;65104;52.994;6.552;2023-08-21T04:52:23;102332.59;;;13.32;100.00
76297;BME280;65104;52.994;6.552;2023-08-21T04:54:49;102336.88;;;13.31;100.00
76297;BME280;65104;52.994;6.552;2023-08-21T04:57:15;102334.38;;;13.34;100.00
76297;BME280;65104;52.994;6.552;2023-08-21T04:59:40;102331.91;;;13.37;100.00
76297;BME280;65104;52.994;6.552;2023-08-21T05:02:06;102336.31;;;13.40;100.00
76297;BME280;65104;52.994;6.552;2023-08-21T05:04:31;102337.31;;;13.45;100.00
76297;BME280;65104;52.994;6.552;2023-08-21T05:06:57;102333.78;;;13.43;100.00
76297;BME280;65104;52.994;6.552;2023-08-21T05:09:22;102331.22;;;13.43;100.00
76297;BME280;65104;52.994;6.552;2023-08-21T05:11:48;102328.63;;;13.43;100.00
76297;BME280;65104;52.994;6.552;2023-08-21T05:14:13;102333.78;;;13.43;100.00
76297;BME280;65104;52.994;6.552;2023-08-21T05:16:38;102338.13;;;13.44;100.00
76297;BME280;65104;52.994;6.552;2023-08-21T05:19:04;102334.81;;;13.48;100.00
76297;BME280;65104;52.994;6.552;2023-08-21T05:21:29;102339.16;;;13.49;100.00
76297;BME280;65104;52.994;6.552;2023-08-21T05:23:55;102335.75;;;13.50;100.00
76297;BME280;65104;52.994;6.552;2023-08-21T05:26:20;102338.34;;;13.51;100.00
76297;BME280;65104;52.994;6.552;2023-08-21T05:28:46;102336.72;;;13.53;100.00
76297;BME280;65104;52.994;6.552;2023-08-21T05:31:11;102344.50;;;13.55;100.00
76297;BME280;65104;52.994;6.552;2023-08-21T05:33:37;102348.97;;;13.61;100.00
76297;BME280;65104;52.994;6.552;2023-08-21T05:36:02;102350.81;;;13.65;100.00
76297;BME280;65104;52.994;6.552;2023-08-21T05:38:28;102350.00;;;13.66;100.00
76297;BME280;65104;52.994;6.552;2023-08-21T05:40:53;102357.84;;;13.69;100.00
76297;BME280;65104;52.994;6.552;2023-08-21T05:43:19;102352.75;;;13.72;100.00
76297;BME280;65104;52.994;6.552;2023-08-21T05:45:44;102358.09;;;13.78;100.00
76297;BME280;65104;52.994;6.552;2023-08-21T05:48:09;102354.88;;;13.85;100.00
76297;BME280;65104;52.994;6.552;2023-08-21T05:50:36;102354.13;;;13.89;100.00
76297;BME280;65104;52.994;6.552;2023-08-21T05:53:05;102359.44;;;13.94;100.00
76297;BME280;65104;52.994;6.552;2023-08-21T05:55:30;102362.94;;;13.96;100.00
76297;BME280;65104;52.994;6.552;2023-08-21T05:57:56;102354.44;;;14.00;100.00
76297;BME280;65104;52.994;6.552;2023-08-21T06:00:21;102361.47;;;14.04;100.00
76297;BME280;65104;52.994;6.552;2023-08-21T06:02:46;102363.28;;;14.08;100.00
76297;BME280;65104;52.994;6.552;2023-08-21T06:05:12;102366.88;;;14.13;100.00
76297;BME280;65104;52.994;6.552;2023-08-21T06:07:37;102367.94;;;14.19;100.00
76297;BME280;65104;52.994;6.552;2023-08-21T06:10:03;102367.22;;;14.25;100.00
76297;BME280;65104;52.994;6.552;2023-08-21T06:12:30;102374.28;;;14.31;100.00
76297;BME280;65104;52.994;6.552;2023-08-21T06:14:55;102374.47;;;14.38;100.00
76297;BME280;65104;52.994;6.552;2023-08-21T06:17:21;102369.47;;;14.43;100.00
76297;BME280;65104;52.994;6.552;2023-08-21T06:19:47;102369.66;;;14.50;100.00
76297;BME280;65104;52.994;6.552;2023-08-21T06:22:12;102374.25;;;14.60;100.00
76297;BME280;65104;52.994;6.552;2023-08-21T06:24:37;102379.81;;;14.74;100.00
76297;BME280;65104;52.994;6.552;2023-08-21T06:27:03;102389.50;;;14.83;100.00
76297;BME280;65104;52.994;6.552;2023-08-21T06:29:28;102387.19;;;14.93;100.00
76297;BME280;65104;52.994;6.552;2023-08-21T06:31:54;102379.66;;;15.02;100.00
76297;BME280;65104;52.994;6.552;2023-08-21T06:34:19;102376.44;;;15.11;100.00
76297;BME280;65104;52.994;6.552;2023-08-21T06:36:44;102378.38;;;15.21;100.00
76297;BME280;65104;52.994;6.552;2023-08-21T06:39:10;102381.22;;;15.32;100.00
76297;BME280;65104;52.994;6.552;2023-08-21T06:41:35;102379.81;;;15.45;100.00
76297;BME280;65104;52.994;6.552;2023-08-21T06:44:01;102380.94;;;15.54;100.00
76297;BME280;65104;52.994;6.552;2023-08-21T06:46:26;102387.25;;;15.65;100.00
76297;BME280;65104;52.994;6.552;2023-08-21T06:48:52;102386.63;;;15.77;100.00
76297;BME280;65104;52.994;6.552;2023-08-21T06:51:17;102382.56;;;15.88;100.00
76297;BME280;65104;52.994;6.552;2023-08-21T06:53:42;102382.00;;;16.01;100.00
76297;BME280;65104;52.994;6.552;2023-08-21T06:56:08;102380.53;;;16.16;100.00
76297;BME280;65104;52.994;6.552;2023-08-21T06:58:33;102382.53;;;16.29;100.00
76297;BME280;65104;52.994;6.552;2023-08-21T07:01:00;102379.41;;;16.45;100.00
76297;BME280;65104;52.994;6.552;2023-08-21T07:03:26;102382.09;;;16.51;100.00
76297;BME280;65104;52.994;6.552;2023-08-21T07:05:58;102376.31;;;16.64;100.00
76297;BME280;65104;52.994;6.552;2023-08-21T07:08:25;102367.84;;;16.74;100.00
76297;BME280;65104;52.994;6.552;2023-08-21T07:10:51;102364.56;;;16.84;100.00
76297;BME280;65104;52.994;6.552;2023-08-21T07:13:16;102356.09;;;16.95;100.00
76297;BME280;65104;52.994;6.552;2023-08-21T07:15:42;102357.22;;;17.10;100.00
76297;BME280;65104;52.994;6.552;2023-08-21T07:18:07;102357.41;;;17.21;100.00
76297;BME280;65104;52.994;6.552;2023-08-21T07:20:33;102358.41;;;17.31;100.00
76297;BME280;65104;52.994;6.552;2023-08-21T07:22:58;102356.84;;;17.40;100.00
76297;BME280;65104;52.994;6.552;2023-08-21T07:25:24;102353.50;;;17.49;100.00
76297;BME280;65104;52.994;6.552;2023-08-21T07:27:51;102339.81;;;17.60;100.00
76297;BME280;65104;52.994;6.552;2023-08-21T07:30:18;102336.53;;;17.74;100.00
76297;BME280;65104;52.994;6.552;2023-08-21T07:32:45;102344.44;;;17.80;100.00
76297;BME280;65104;52.994;6.552;2023-08-21T07:35:10;102347.16;;;17.89;100.00
76297;BME280;65104;52.994;6.552;2023-08-21T07:37:36;102336.00;;;18.00;100.00
76297;BME280;65104;52.994;6.552;2023-08-21T07:40:01;102331.81;;;18.10;100.00
76297;BME280;65104;52.994;6.552;2023-08-21T07:42:27;102328.41;;;18.17;100.00
76297;BME280;65104;52.994;6.552;2023-08-21T07:44:52;102347.56;;;18.22;100.00
76297;BME280;65104;52.994;6.552;2023-08-21T07:47:18;102338.09;;;18.29;100.00
76297;BME280;65104;52.994;6.552;2023-08-21T07:49:43;102343.34;;;18.33;100.00
76297;BME280;65104;52.994;6.552;2023-08-21T07:52:08;102338.19;;;18.38;100.00
76297;BME280;65104;52.994;6.552;2023-08-21T07:54:34;102337.38;;;18.45;100.00
76297;BME280;65104;52.994;6.552;2023-08-21T07:56:59;102340.94;;;18.55;100.00
76297;BME280;65104;52.994;6.552;2023-08-21T07:59:25;102332.38;;;18.63;100.00
76297;BME280;65104;52.994;6.552;2023-08-21T08:01:50;102333.31;;;18.70;100.00
76297;BME280;65104;52.994;6.552;2023-08-21T08:04:15;102342.94;;;18.77;100.00
76297;BME280;65104;52.994;6.552;2023-08-21T08:06:41;102344.78;;;18.90;100.00
76297;BME280;65104;52.994;6.552;2023-08-21T08:09:07;102335.28;;;18.98;100.00
76297;BME280;65104;52.994;6.552;2023-08-21T08:11:32;102337.97;;;19.04;100.00
76297;BME280;65104;52.994;6.552;2023-08-21T08:13:59;102334.53;;;19.11;100.00
76297;BME280;65104;52.994;6.552;2023-08-21T08:16:24;102343.28;;;19.20;100.00
76297;BME280;65104;52.994;6.552;2023-08-21T08:18:49;102338.13;;;19.29;100.00
76297;BME280;65104;52.994;6.552;2023-08-21T08:21:15;102336.44;;;19.37;100.00
76297;BME280;65104;52.994;6.552;2023-08-21T08:23:41;102331.28;;;19.46;100.00
76297;BME280;65104;52.994;6.552;2023-08-21T08:26:06;102328.72;;;19.52;100.00
76297;BME280;65104;52.994;6.552;2023-08-21T08:28:33;102333.13;;;19.61;100.00
76297;BME280;65104;52.994;6.552;2023-08-21T08:30:59;102336.66;;;19.66;100.00
76297;BME280;65104;52.994;6.552;2023-08-21T08:33:24;102320.16;;;19.71;100.00
76297;BME280;65104;52.994;6.552;2023-08-21T08:35:50;102329.78;;;19.83;100.00
76297;BME280;65104;52.994;6.552;2023-08-21T08:38:15;102328.06;;;19.97;100.00
76297;BME280;65104;52.994;6.552;2023-08-21T08:40:46;102329.88;;;20.09;100.00
76297;BME280;65104;52.994;6.552;2023-08-21T08:43:12;102328.16;;;20.24;100.00
76297;BME280;65104;52.994;6.552;2023-08-21T08:45:40;102324.78;;;20.54;100.00
76297;BME280;65104;52.994;6.552;2023-08-21T08:48:06;102327.41;;;20.70;100.00
76297;BME280;65104;52.994;6.552;2023-08-21T08:50:32;102319.56;;;20.91;100.00
76297;BME280;65104;52.994;6.552;2023-08-21T08:52:59;102317.81;;;21.22;100.00
76297;BME280;65104;52.994;6.552;2023-08-21T08:55:25;102318.66;;;21.47;100.00
76297;BME280;65104;52.994;6.552;2023-08-21T08:57:52;102324.66;;;21.70;100.00
76297;BME280;65104;52.994;6.552;2023-08-21T09:00:17;102323.69;;;21.94;100.00
76297;BME280;65104;52.994;6.552;2023-08-21T09:02:43;102320.13;;;22.16;100.00
76297;BME280;65104;52.994;6.552;2023-08-21T09:05:08;102312.13;;;22.37;100.00
76297;BME280;65104;52.994;6.552;2023-08-21T09:07:35;102320.75;;;22.53;100.00
76297;BME280;65104;52.994;6.552;2023-08-21T09:10:02;102319.72;;;22.78;100.00
76297;BME280;65104;52.994;6.552;2023-08-21T09:12:31;102319.38;;;23.15;100.00
76297;BME280;65104;52.994;6.552;2023-08-21T09:14:58;102327.16;;;23.23;100.00
76297;BME280;65104;52.994;6.552;2023-08-21T09:17:23;102312.13;;;23.40;100.00
76297;BME280;65104;52.994;6.552;2023-08-21T09:19:49;102320.69;;;23.59;100.00
76297;BME280;65104;52.994;6.552;2023-08-21T09:22:16;102316.97;;;23.76;100.00
76297;BME280;65104;52.994;6.552;2023-08-21T09:25:03;102312.25;;;24.01;98.60
76297;BME280;65104;52.994;6.552;2023-08-21T09:27:34;102314.03;;;23.99;100.00
76297;BME280;65104;52.994;6.552;2023-08-21T09:30:04;102315.72;;;24.06;98.59
76297;BME280;65104;52.994;6.552;2023-08-21T09:32:30;102309.59;;;24.06;100.00
76297;BME280;65104;52.994;6.552;2023-08-21T09:34:56;102314.50;;;24.30;98.66
76297;BME280;65104;52.994;6.552;2023-08-21T09:37:27;102313.69;;;24.25;94.82
76297;BME280;65104;52.994;6.552;2023-08-21T09:39:53;102305.91;;;24.16;88.28
76297;BME280;65104;52.994;6.552;2023-08-21T09:42:18;102305.13;;;24.12;91.69
76297;BME280;65104;52.994;6.552;2023-08-21T09:44:44;102306.88;;;24.10;93.33
76297;BME280;65104;52.994;6.552;2023-08-21T09:47:11;102305.38;;;23.94;89.05
76297;BME280;65104;52.994;6.552;2023-08-21T09:49:37;102305.28;;;24.00;90.06
76297;BME280;65104;52.994;6.552;2023-08-21T09:52:06;102308.78;;;23.99;90.13
76297;BME280;65104;52.994;6.552;2023-08-21T09:54:36;102306.00;;;24.11;90.01
76297;BME280;65104;52.994;6.552;2023-08-21T09:57:03;102309.41;;;24.21;100.00
76297;BME280;65104;52.994;6.552;2023-08-21T09:59:30;102307.38;;;24.38;97.44
76297;BME280;65104;52.994;6.552;2023-08-21T10:01:58;102306.19;;;24.59;90.76
76297;BME280;65104;52.994;6.552;2023-08-21T10:04:25;102306.84;;;24.72;86.09
76297;BME280;65104;52.994;6.552;2023-08-21T10:06:51;102306.53;;;24.88;84.47
76297;BME280;65104;52.994;6.552;2023-08-21T10:09:20;102299.34;;;25.02;84.89
76297;BME280;65104;52.994;6.552;2023-08-21T10:11:47;102299.19;;;25.10;81.39
76297;BME280;65104;52.994;6.552;2023-08-21T10:14:13;102296.09;;;25.33;83.50
76297;BME280;65104;52.994;6.552;2023-08-21T10:16:39;102293.41;;;25.37;82.96
76297;BME280;65104;52.994;6.552;2023-08-21T10:19:04;102291.16;;;25.62;79.00
76297;BME280;65104;52.994;6.552;2023-08-21T10:21:35;102293.94;;;25.55;75.75
76297;BME280;65104;52.994;6.552;2023-08-21T10:24:02;102287.97;;;25.47;76.84
76297;BME280;65104;52.994;6.552;2023-08-21T10:26:28;102293.91;;;25.56;76.89
76297;BME280;65104;52.994;6.552;2023-08-21T10:31:39;102298.63;;;25.84;73.02
76297;BME280;65104;52.994;6.552;2023-08-21T10:34:09;102291.41;;;25.92;73.08
76297;BME280;65104;52.994;6.552;2023-08-21T10:39:14;102289.56;;;26.35;74.91
76297;BME280;65104;52.994;6.552;2023-08-21T10:42:10;102285.91;;;26.41;71.30
76297;BME280;65104;52.994;6.552;2023-08-21T10:50:03;102273.09;;;26.24;73.64
76297;BME280;65104;52.994;6.552;2023-08-21T10:52:29;102279.75;;;26.03;71.59
76297;BME280;65104;52.994;6.552;2023-08-21T10:54:59;102280.44;;;26.11;76.97
76297;BME280;65104;52.994;6.552;2023-08-21T10:57:27;102283.63;;;26.26;71.46
76297;BME280;65104;52.994;6.552;2023-08-21T11:02:18;102286.47;;;26.53;69.84
76297;BME280;65104;52.994;6.552;2023-08-21T11:04:44;102295.47;;;26.80;67.82
76297;BME280;65104;52.994;6.552;2023-08-21T11:07:10;102301.75;;;27.10;67.76
76297;BME280;65104;52.994;6.552;2023-08-21T11:09:39;102292.88;;;26.77;66.15
76297;BME280;65104;52.994;6.552;2023-08-21T11:12:09;102298.53;;;26.27;67.62
76297;BME280;65104;52.994;6.552;2023-08-21T11:14:34;102306.41;;;26.65;69.83
76297;BME280;65104;52.994;6.552;2023-08-21T11:17:00;102297.03;;;26.87;69.04
76297;BME280;65104;52.994;6.552;2023-08-21T11:19:26;102291.44;;;27.01;65.48
76297;BME280;65104;52.994;6.552;2023-08-21T11:21:51;102287.72;;;27.08;64.40
76297;BME280;65104;52.994;6.552;2023-08-21T11:24:17;102292.44;;;26.23;67.11
76297;BME280;65104;52.994;6.552;2023-08-21T11:26:42;102287.56;;;26.45;70.46
76297;BME280;65104;52.994;6.552;2023-08-21T11:29:08;102296.50;;;26.75;64.61
76297;BME280;65104;52.994;6.552;2023-08-21T11:31:33;102301.41;;;26.88;65.30
76297;BME280;65104;52.994;6.552;2023-08-21T11:33:58;102295.22;;;27.23;61.97
76297;BME280;65104;52.994;6.552;2023-08-21T11:36:24;102295.38;;;27.48;63.88
76297;BME280;65104;52.994;6.552;2023-08-21T11:39:00;102291.84;;;27.80;64.48
76297;BME280;65104;52.994;6.552;2023-08-21T11:41:28;102293.09;;;27.96;63.77
76297;BME280;65104;52.994;6.552;2023-08-21T11:44:01;102280.44;;;28.08;64.20
76297;BME280;65104;52.994;6.552;2023-08-21T11:46:27;102282.00;;;27.85;63.47
76297;BME280;65104;52.994;6.552;2023-08-21T11:48:52;102277.53;;;28.15;63.51
76297;BME280;65104;52.994;6.552;2023-08-21T11:51:17;102282.91;;;27.22;62.85
76297;BME280;65104;52.994;6.552;2023-08-21T11:53:47;102285.22;;;26.33;64.46
76297;BME280;65104;52.994;6.552;2023-08-21T11:56:15;102282.66;;;25.50;66.85
76297;BME280;65104;52.994;6.552;2023-08-21T11:58:42;102278.91;;;25.17;69.71
76297;BME280;65104;52.994;6.552;2023-08-21T12:01:07;102278.84;;;25.64;70.73
76297;BME280;65104;52.994;6.552;2023-08-21T12:03:39;102276.38;;;26.37;68.32
76297;BME280;65104;52.994;6.552;2023-08-21T12:06:11;102270.59;;;26.90;64.09
76297;BME280;65104;52.994;6.552;2023-08-21T12:08:38;102263.97;;;27.39;62.07
76297;BME280;65104;52.994;6.552;2023-08-21T12:11:04;102252.91;;;27.57;61.46
76297;BME280;65104;52.994;6.552;2023-08-21T12:13:30;102261.81;;;27.53;64.35
76297;BME280;65104;52.994;6.552;2023-08-21T12:15:56;102262.44;;;27.01;61.29
76297;BME280;65104;52.994;6.552;2023-08-21T12:18:21;102263.38;;;26.65;63.97
76297;BME280;65104;52.994;6.552;2023-08-21T12:20:47;102255.16;;;27.40;67.94
76297;BME280;65104;52.994;6.552;2023-08-21T12:23:12;102254.97;;;27.77;60.46
76297;BME280;65104;52.994;6.552;2023-08-21T12:25:37;102248.00;;;28.02;59.60
76297;BME280;65104;52.994;6.552;2023-08-21T12:28:03;102252.63;;;28.24;59.00
76297;BME280;65104;52.994;6.552;2023-08-21T12:30:29;102254.41;;;27.66;59.46
76297;BME280;65104;52.994;6.552;2023-08-21T12:32:54;102250.38;;;27.54;65.26
76297;BME280;65104;52.994;6.552;2023-08-21T12:35:19;102245.31;;;27.76;61.84
76297;BME280;65104;52.994;6.552;2023-08-21T12:37:45;102250.88;;;27.95;56.91
76297;BME280;65104;52.994;6.552;2023-08-21T12:40:10;102249.41;;;28.14;59.80
76297;BME280;65104;52.994;6.552;2023-08-21T12:42:36;102252.94;;;28.13;57.89
76297;BME280;65104;52.994;6.552;2023-08-21T12:45:04;102249.09;;;28.51;60.92
76297;BME280;65104;52.994;6.552;2023-08-21T12:47:30;102253.84;;;28.66;61.61
76297;BME280;65104;52.994;6.552;2023-08-21T12:49:55;102249.47;;;28.39;59.32
76297;BME280;65104;52.994;6.552;2023-08-21T12:52:21;102251.19;;;28.14;56.53
76297;BME280;65104;52.994;6.552;2023-08-21T12:54:46;102251.34;;;28.09;58.01